sensor_id;sensor_type;location;lat;lon;timestamp;P1;durP1;ratioP1;P2;durP2;ratioP2
31378;SDS011;61664;48.112;11.662;2022-11-20T00:01:22;3.28;;;1.65;;
31378;SDS011;61664;48.112;11.662;2022-11-20T00:03:51;2.38;;;1.60;;
31378;SDS011;61664;48.112;11.662;2022-11-20T00:06:21;1.67;;;1.50;;
31378;SDS011;61664;48.112;11.662;2022-11-20T00:08:49;1.45;;;1.35;;
31378;SDS011;61664;48.112;11.662;2022-11-20T00:11:20;2.78;;;1.45;;
31378;SDS011;61664;48.112;11.662;2022-11-20T00:13:51;1.70;;;1.60;;
31378;SDS011;61664;48.112;11.662;2022-11-20T00:16:22;1.00;;;1.00;;
31378;SDS011;61664;48.112;11.662;2022-11-20T00:18:51;1.85;;;1.50;;
31378;SDS011;61664;48.112;11.662;2022-11-20T00:21:19;1.77;;;1.33;;
31378;SDS011;61664;48.112;11.662;2022-11-20T00:23:49;1.88;;;1.55;;
31378;SDS011;61664;48.112;11.662;2022-11-20T00:26:20;1.45;;;1.33;;
31378;SDS011;61664;48.112;11.662;2022-11-20T00:28:50;1.40;;;1.30;;
31378;SDS011;61664;48.112;11.662;2022-11-20T00:31:25;1.60;;;1.50;;
31378;SDS011;61664;48.112;11.662;2022-11-20T00:33:53;1.90;;;1.40;;
31378;SDS011;61664;48.112;11.662;2022-11-20T00:36:21;1.73;;;1.63;;
31378;SDS011;61664;48.112;11.662;2022-11-20T00:38:51;1.38;;;1.27;;
31378;SDS011;61664;48.112;11.662;2022-11-20T00:41:20;1.70;;;1.60;;
31378;SDS011;61664;48.112;11.662;2022-11-20T00:43:48;2.50;;;1.60;;
31378;SDS011;61664;48.112;11.662;2022-11-20T00:46:17;1.50;;;1.08;;
31378;SDS011;61664;48.112;11.662;2022-11-20T00:48:47;2.10;;;1.38;;
31378;SDS011;61664;48.112;11.662;2022-11-20T00:51:15;1.20;;;1.10;;
31378;SDS011;61664;48.112;11.662;2022-11-20T00:53:48;1.63;;;1.52;;
31378;SDS011;61664;48.112;11.662;2022-11-20T00:56:16;2.63;;;1.60;;
31378;SDS011;61664;48.112;11.662;2022-11-20T00:58:46;1.58;;;1.20;;
31378;SDS011;61664;48.112;11.662;2022-11-20T01:01:15;1.42;;;1.33;;
31378;SDS011;61664;48.112;11.662;2022-11-20T01:03:50;0.90;;;0.90;;
31378;SDS011;61664;48.112;11.662;2022-11-20T01:06:20;1.70;;;1.60;;
31378;SDS011;61664;48.112;11.662;2022-11-20T01:08:49;2.65;;;1.73;;
31378;SDS011;61664;48.112;11.662;2022-11-20T01:11:20;1.40;;;1.30;;
31378;SDS011;61664;48.112;11.662;2022-11-20T01:14:00;1.27;;;1.17;;
31378;SDS011;61664;48.112;11.662;2022-11-20T01:16:30;2.53;;;1.48;;
31378;SDS011;61664;48.112;11.662;2022-11-20T01:19:05;1.20;;;1.10;;
31378;SDS011;61664;48.112;11.662;2022-11-20T01:21:39;1.88;;;1.77;;
31378;SDS011;61664;48.112;11.662;2022-11-20T01:24:12;2.45;;;1.73;;
31378;SDS011;61664;48.112;11.662;2022-11-20T01:26:43;1.33;;;1.23;;
31378;SDS011;61664;48.112;11.662;2022-11-20T01:29:14;1.40;;;1.30;;
31378;SDS011;61664;48.112;11.662;2022-11-20T01:31:50;2.20;;;2.10;;
31378;SDS011;61664;48.112;11.662;2022-11-20T01:34:19;2.22;;;2.08;;
31378;SDS011;61664;48.112;11.662;2022-11-20T01:36:48;1.92;;;1.83;;
31378;SDS011;61664;48.112;11.662;2022-11-20T01:39:19;1.65;;;1.55;;
31378;SDS011;61664;48.112;11.662;2022-11-20T01:41:50;2.00;;;1.38;;
31378;SDS011;61664;48.112;11.662;2022-11-20T01:44:58;1.92;;;1.65;;
31378;SDS011;61664;48.112;11.662;2022-11-20T01:47:39;3.08;;;2.72;;
31378;SDS011;61664;48.112;11.662;2022-11-20T01:50:15;2.03;;;1.92;;
31378;SDS011;61664;48.112;11.662;2022-11-20T01:52:58;1.98;;;1.80;;
31378;SDS011;61664;48.112;11.662;2022-11-20T01:55:32;1.80;;;1.70;;
31378;SDS011;61664;48.112;11.662;2022-11-20T01:58:10;3.38;;;1.50;;
31378;SDS011;61664;48.112;11.662;2022-11-20T02:00:39;1.85;;;1.75;;
31378;SDS011;61664;48.112;11.662;2022-11-20T02:03:08;2.05;;;1.60;;
31378;SDS011;61664;48.112;11.662;2022-11-20T02:05:47;5.35;;;1.55;;
31378;SDS011;61664;48.112;11.662;2022-11-20T02:08:32;1.58;;;1.25;;
31378;SDS011;61664;48.112;11.662;2022-11-20T02:11:00;1.60;;;1.50;;
31378;SDS011;61664;48.112;11.662;2022-11-20T02:13:27;1.30;;;1.27;;
31378;SDS011;61664;48.112;11.662;2022-11-20T02:16:14;2.05;;;1.50;;
31378;SDS011;61664;48.112;11.662;2022-11-20T02:18:52;1.58;;;1.48;;
31378;SDS011;61664;48.112;11.662;2022-11-20T02:21:30;4.68;;;1.35;;
31378;SDS011;61664;48.112;11.662;2022-11-20T02:24:10;1.60;;;1.50;;
31378;SDS011;61664;48.112;11.662;2022-11-20T02:29:17;1.70;;;1.60;;
31378;SDS011;61664;48.112;11.662;2022-11-20T02:31:57;1.80;;;1.70;;
31378;SDS011;61664;48.112;11.662;2022-11-20T02:34:26;1.50;;;1.27;;
31378;SDS011;61664;48.112;11.662;2022-11-20T02:36:54;2.20;;;1.58;;
31378;SDS011;61664;48.112;11.662;2022-11-20T02:39:25;1.80;;;1.48;;
31378;SDS011;61664;48.112;11.662;2022-11-20T02:41:54;2.85;;;1.77;;
31378;SDS011;61664;48.112;11.662;2022-11-20T02:44:23;1.60;;;1.50;;
31378;SDS011;61664;48.112;11.662;2022-11-20T02:46:50;1.52;;;1.42;;
31378;SDS011;61664;48.112;11.662;2022-11-20T02:49:17;1.67;;;1.50;;
31378;SDS011;61664;48.112;11.662;2022-11-20T02:51:44;1.75;;;1.65;;
31378;SDS011;61664;48.112;11.662;2022-11-20T02:54:11;1.75;;;1.65;;
31378;SDS011;61664;48.112;11.662;2022-11-20T02:56:38;2.05;;;1.80;;
31378;SDS011;61664;48.112;11.662;2022-11-20T02:59:05;2.00;;;1.77;;
31378;SDS011;61664;48.112;11.662;2022-11-20T03:01:33;1.80;;;1.70;;
31378;SDS011;61664;48.112;11.662;2022-11-20T03:04:00;2.15;;;2.05;;
31378;SDS011;61664;48.112;11.662;2022-11-20T03:06:27;2.08;;;1.98;;
31378;SDS011;61664;48.112;11.662;2022-11-20T03:08:54;1.80;;;1.70;;
31378;SDS011;61664;48.112;11.662;2022-11-20T03:11:21;2.08;;;1.90;;
31378;SDS011;61664;48.112;11.662;2022-11-20T03:13:47;1.50;;;1.40;;
31378;SDS011;61664;48.112;11.662;2022-11-20T03:16:21;1.90;;;1.80;;
31378;SDS011;61664;48.112;11.662;2022-11-20T03:18:51;4.03;;;1.90;;
31378;SDS011;61664;48.112;11.662;2022-11-20T03:21:19;1.83;;;1.73;;
31378;SDS011;61664;48.112;11.662;2022-11-20T03:23:46;1.70;;;1.60;;
31378;SDS011;61664;48.112;11.662;2022-11-20T03:26:17;3.47;;;2.00;;
31378;SDS011;61664;48.112;11.662;2022-11-20T03:28:51;2.95;;;1.55;;
31378;SDS011;61664;48.112;11.662;2022-11-20T03:31:25;1.52;;;1.42;;
31378;SDS011;61664;48.112;11.662;2022-11-20T03:33:56;2.55;;;2.28;;
31378;SDS011;61664;48.112;11.662;2022-11-20T03:36:25;1.55;;;1.45;;
31378;SDS011;61664;48.112;11.662;2022-11-20T03:38:53;2.28;;;1.83;;
31378;SDS011;61664;48.112;11.662;2022-11-20T03:41:23;2.05;;;1.70;;
31378;SDS011;61664;48.112;11.662;2022-11-20T03:43:57;2.15;;;1.65;;
31378;SDS011;61664;48.112;11.662;2022-11-20T03:46:26;1.77;;;1.67;;
31378;SDS011;61664;48.112;11.662;2022-11-20T03:48:54;2.75;;;2.55;;
31378;SDS011;61664;48.112;11.662;2022-11-20T03:51:23;2.15;;;2.05;;
31378;SDS011;61664;48.112;11.662;2022-11-20T03:53:56;2.65;;;2.15;;
31378;SDS011;61664;48.112;11.662;2022-11-20T03:56:28;2.20;;;2.10;;
31378;SDS011;61664;48.112;11.662;2022-11-20T03:58:58;1.75;;;1.65;;
31378;SDS011;61664;48.112;11.662;2022-11-20T04:01:26;1.95;;;1.85;;
31378;SDS011;61664;48.112;11.662;2022-11-20T04:03:56;2.92;;;2.03;;
31378;SDS011;61664;48.112;11.662;2022-11-20T04:06:25;2.60;;;2.40;;
31378;SDS011;61664;48.112;11.662;2022-11-20T04:08:56;2.15;;;1.98;;
31378;SDS011;61664;48.112;11.662;2022-11-20T04:11:25;2.15;;;2.05;;
31378;SDS011;61664;48.112;11.662;2022-11-20T04:13:59;1.88;;;1.77;;
31378;SDS011;61664;48.112;11.662;2022-11-20T04:16:29;2.03;;;1.92;;
31378;SDS011;61664;48.112;11.662;2022-11-20T04:19:01;1.90;;;1.80;;
31378;SDS011;61664;48.112;11.662;2022-11-20T04:21:30;2.28;;;2.08;;
31378;SDS011;61664;48.112;11.662;2022-11-20T04:23:57;1.80;;;1.70;;
31378;SDS011;61664;48.112;11.662;2022-11-20T04:26:25;2.03;;;1.70;;
31378;SDS011;61664;48.112;11.662;2022-11-20T04:28:55;2.22;;;1.90;;
31378;SDS011;61664;48.112;11.662;2022-11-20T04:31:27;1.88;;;1.77;;
31378;SDS011;61664;48.112;11.662;2022-11-20T04:34:03;1.55;;;1.42;;
31378;SDS011;61664;48.112;11.662;2022-11-20T04:36:32;1.67;;;1.58;;
31378;SDS011;61664;48.112;11.662;2022-11-20T04:39:01;2.15;;;1.77;;
31378;SDS011;61664;48.112;11.662;2022-11-20T04:41:32;1.80;;;1.70;;
31378;SDS011;61664;48.112;11.662;2022-11-20T04:44:03;1.75;;;1.65;;
31378;SDS011;61664;48.112;11.662;2022-11-20T04:46:32;2.05;;;1.85;;
31378;SDS011;61664;48.112;11.662;2022-11-20T04:49:03;1.65;;;1.55;;
31378;SDS011;61664;48.112;11.662;2022-11-20T04:51:31;2.10;;;2.00;;
31378;SDS011;61664;48.112;11.662;2022-11-20T04:53:59;1.75;;;1.65;;
31378;SDS011;61664;48.112;11.662;2022-11-20T04:56:26;1.92;;;1.80;;
31378;SDS011;61664;48.112;11.662;2022-11-20T04:58:53;1.75;;;1.65;;
31378;SDS011;61664;48.112;11.662;2022-11-20T05:01:21;2.08;;;1.88;;
31378;SDS011;61664;48.112;11.662;2022-11-20T05:03:50;2.00;;;1.90;;
31378;SDS011;61664;48.112;11.662;2022-11-20T05:06:18;2.92;;;1.92;;
31378;SDS011;61664;48.112;11.662;2022-11-20T05:08:47;1.98;;;1.88;;
31378;SDS011;61664;48.112;11.662;2022-11-20T05:11:15;2.08;;;1.88;;
31378;SDS011;61664;48.112;11.662;2022-11-20T05:13:45;2.97;;;2.33;;
31378;SDS011;61664;48.112;11.662;2022-11-20T05:16:17;2.63;;;2.00;;
31378;SDS011;61664;48.112;11.662;2022-11-20T05:18:47;1.98;;;1.80;;
31378;SDS011;61664;48.112;11.662;2022-11-20T05:21:14;2.20;;;1.80;;
31378;SDS011;61664;48.112;11.662;2022-11-20T05:23:43;2.40;;;2.30;;
31378;SDS011;61664;48.112;11.662;2022-11-20T05:26:12;2.65;;;2.45;;
31378;SDS011;61664;48.112;11.662;2022-11-20T05:28:45;2.10;;;2.00;;
31378;SDS011;61664;48.112;11.662;2022-11-20T05:31:22;2.00;;;1.90;;
31378;SDS011;61664;48.112;11.662;2022-11-20T05:33:53;2.00;;;1.90;;
31378;SDS011;61664;48.112;11.662;2022-11-20T05:36:22;2.15;;;1.95;;
31378;SDS011;61664;48.112;11.662;2022-11-20T05:38:50;1.90;;;1.80;;
31378;SDS011;61664;48.112;11.662;2022-11-20T05:41:23;2.17;;;1.92;;
31378;SDS011;61664;48.112;11.662;2022-11-20T05:43:50;2.67;;;2.47;;
31378;SDS011;61664;48.112;11.662;2022-11-20T05:46:18;1.90;;;1.80;;
31378;SDS011;61664;48.112;11.662;2022-11-20T05:48:54;1.67;;;1.58;;
31378;SDS011;61664;48.112;11.662;2022-11-20T05:51:21;2.25;;;1.90;;
31378;SDS011;61664;48.112;11.662;2022-11-20T05:53:48;2.10;;;2.00;;
31378;SDS011;61664;48.112;11.662;2022-11-20T05:56:16;2.35;;;1.92;;
31378;SDS011;61664;48.112;11.662;2022-11-20T05:58:47;2.20;;;2.10;;
31378;SDS011;61664;48.112;11.662;2022-11-20T06:01:17;1.88;;;1.77;;
31378;SDS011;61664;48.112;11.662;2022-11-20T06:03:48;2.13;;;1.75;;
31378;SDS011;61664;48.112;11.662;2022-11-20T06:06:17;2.03;;;1.92;;
31378;SDS011;61664;48.112;11.662;2022-11-20T06:08:46;1.83;;;1.73;;
31378;SDS011;61664;48.112;11.662;2022-11-20T06:11:13;1.70;;;1.60;;
31378;SDS011;61664;48.112;11.662;2022-11-20T06:13:41;3.78;;;2.13;;
31378;SDS011;61664;48.112;11.662;2022-11-20T06:16:10;2.20;;;1.90;;
31378;SDS011;61664;48.112;11.662;2022-11-20T06:18:39;2.20;;;2.10;;
31378;SDS011;61664;48.112;11.662;2022-11-20T06:21:07;2.15;;;2.05;;
31378;SDS011;61664;48.112;11.662;2022-11-20T06:23:38;2.00;;;1.90;;
31378;SDS011;61664;48.112;11.662;2022-11-20T06:26:07;2.17;;;2.00;;
31378;SDS011;61664;48.112;11.662;2022-11-20T06:28:40;2.35;;;1.85;;
31378;SDS011;61664;48.112;11.662;2022-11-20T06:31:09;2.08;;;1.98;;
31378;SDS011;61664;48.112;11.662;2022-11-20T06:33:41;1.90;;;1.80;;
31378;SDS011;61664;48.112;11.662;2022-11-20T06:36:09;1.52;;;1.42;;
31378;SDS011;61664;48.112;11.662;2022-11-20T06:38:39;1.57;;;1.47;;
31378;SDS011;61664;48.112;11.662;2022-11-20T06:41:07;1.50;;;1.40;;
31378;SDS011;61664;48.112;11.662;2022-11-20T06:43:39;1.67;;;1.58;;
31378;SDS011;61664;48.112;11.662;2022-11-20T06:46:08;2.42;;;1.65;;
31378;SDS011;61664;48.112;11.662;2022-11-20T06:48:37;1.30;;;1.20;;
31378;SDS011;61664;48.112;11.662;2022-11-20T06:51:04;1.45;;;1.35;;
31378;SDS011;61664;48.112;11.662;2022-11-20T06:53:34;4.50;;;1.17;;
31378;SDS011;61664;48.112;11.662;2022-11-20T06:56:01;1.35;;;1.25;;
31378;SDS011;61664;48.112;11.662;2022-11-20T06:58:30;0.90;;;0.90;;
31378;SDS011;61664;48.112;11.662;2022-11-20T07:00:59;1.25;;;1.15;;
31378;SDS011;61664;48.112;11.662;2022-11-20T07:03:27;1.30;;;1.30;;
31378;SDS011;61664;48.112;11.662;2022-11-20T07:05:55;1.42;;;1.33;;
31378;SDS011;61664;48.112;11.662;2022-11-20T07:08:23;1.25;;;1.15;;
31378;SDS011;61664;48.112;11.662;2022-11-20T07:10:50;1.40;;;1.30;;
31378;SDS011;61664;48.112;11.662;2022-11-20T07:13:20;1.70;;;1.60;;
31378;SDS011;61664;48.112;11.662;2022-11-20T07:15:47;1.65;;;1.55;;
31378;SDS011;61664;48.112;11.662;2022-11-20T07:18:13;1.60;;;1.50;;
31378;SDS011;61664;48.112;11.662;2022-11-20T07:20:40;3.47;;;1.70;;
31378;SDS011;61664;48.112;11.662;2022-11-20T07:23:07;1.55;;;1.45;;
31378;SDS011;61664;48.112;11.662;2022-11-20T07:25:34;2.30;;;2.15;;
31378;SDS011;61664;48.112;11.662;2022-11-20T07:28:01;1.83;;;1.73;;
31378;SDS011;61664;48.112;11.662;2022-11-20T07:30:29;1.80;;;1.70;;
31378;SDS011;61664;48.112;11.662;2022-11-20T07:32:57;1.70;;;1.60;;
31378;SDS011;61664;48.112;11.662;2022-11-20T07:35:24;2.03;;;1.80;;
31378;SDS011;61664;48.112;11.662;2022-11-20T07:37:51;2.13;;;2.03;;
31378;SDS011;61664;48.112;11.662;2022-11-20T07:40:18;2.25;;;1.77;;
31378;SDS011;61664;48.112;11.662;2022-11-20T07:42:52;2.13;;;1.83;;
31378;SDS011;61664;48.112;11.662;2022-11-20T07:45:22;1.75;;;1.65;;
31378;SDS011;61664;48.112;11.662;2022-11-20T07:47:50;2.05;;;1.85;;
31378;SDS011;61664;48.112;11.662;2022-11-20T07:50:18;1.80;;;1.70;;
31378;SDS011;61664;48.112;11.662;2022-11-20T07:52:45;2.28;;;2.15;;
31378;SDS011;61664;48.112;11.662;2022-11-20T07:55:13;1.85;;;1.65;;
31378;SDS011;61664;48.112;11.662;2022-11-20T07:57:41;1.60;;;1.50;;
31378;SDS011;61664;48.112;11.662;2022-11-20T08:00:08;2.33;;;1.63;;
31378;SDS011;61664;48.112;11.662;2022-11-20T08:02:40;2.10;;;1.90;;
31378;SDS011;61664;48.112;11.662;2022-11-20T08:05:08;1.70;;;1.60;;
31378;SDS011;61664;48.112;11.662;2022-11-20T08:07:39;2.08;;;1.88;;
31378;SDS011;61664;48.112;11.662;2022-11-20T08:10:10;3.35;;;2.08;;
31378;SDS011;61664;48.112;11.662;2022-11-20T08:12:43;2.15;;;2.05;;
31378;SDS011;61664;48.112;11.662;2022-11-20T08:15:31;1.60;;;1.50;;
31378;SDS011;61664;48.112;11.662;2022-11-20T08:18:02;1.95;;;1.45;;
31378;SDS011;61664;48.112;11.662;2022-11-20T08:20:51;1.80;;;1.70;;
31378;SDS011;61664;48.112;11.662;2022-11-20T08:23:17;2.22;;;2.00;;
31378;SDS011;61664;48.112;11.662;2022-11-20T08:25:48;1.65;;;1.55;;
31378;SDS011;61664;48.112;11.662;2022-11-20T08:28:17;2.05;;;1.95;;
31378;SDS011;61664;48.112;11.662;2022-11-20T08:30:47;1.60;;;1.50;;
31378;SDS011;61664;48.112;11.662;2022-11-20T08:33:16;1.75;;;1.65;;
31378;SDS011;61664;48.112;11.662;2022-11-20T08:35:44;1.67;;;1.58;;
31378;SDS011;61664;48.112;11.662;2022-11-20T08:38:11;1.45;;;1.35;;
31378;SDS011;61664;48.112;11.662;2022-11-20T08:40:38;1.88;;;1.77;;
31378;SDS011;61664;48.112;11.662;2022-11-20T08:43:05;1.73;;;1.52;;
31378;SDS011;61664;48.112;11.662;2022-11-20T08:45:31;1.88;;;1.55;;
31378;SDS011;61664;48.112;11.662;2022-11-20T08:48:01;1.60;;;1.50;;
31378;SDS011;61664;48.112;11.662;2022-11-20T08:50:29;1.85;;;1.75;;
31378;SDS011;61664;48.112;11.662;2022-11-20T08:53:02;1.33;;;1.23;;
31378;SDS011;61664;48.112;11.662;2022-11-20T08:55:30;1.60;;;1.50;;
31378;SDS011;61664;48.112;11.662;2022-11-20T08:57:57;1.90;;;1.60;;
31378;SDS011;61664;48.112;11.662;2022-11-20T09:00:24;1.35;;;1.33;;
31378;SDS011;61664;48.112;11.662;2022-11-20T09:02:51;1.80;;;1.70;;
31378;SDS011;61664;48.112;11.662;2022-11-20T09:05:18;1.40;;;1.30;;
31378;SDS011;61664;48.112;11.662;2022-11-20T09:07:45;1.52;;;1.42;;
31378;SDS011;61664;48.112;11.662;2022-11-20T09:10:12;1.63;;;1.50;;
31378;SDS011;61664;48.112;11.662;2022-11-20T09:12:49;2.70;;;1.15;;
31378;SDS011;61664;48.112;11.662;2022-11-20T09:15:18;1.75;;;1.52;;
31378;SDS011;61664;48.112;11.662;2022-11-20T09:20:24;1.30;;;1.20;;
31378;SDS011;61664;48.112;11.662;2022-11-20T09:22:54;1.55;;;1.45;;
31378;SDS011;61664;48.112;11.662;2022-11-20T09:25:22;1.95;;;1.75;;
31378;SDS011;61664;48.112;11.662;2022-11-20T09:27:54;2.30;;;2.13;;
31378;SDS011;61664;48.112;11.662;2022-11-20T09:30:25;2.15;;;2.05;;
31378;SDS011;61664;48.112;11.662;2022-11-20T09:32:53;3.03;;;2.50;;
31378;SDS011;61664;48.112;11.662;2022-11-20T09:35:20;1.60;;;1.50;;
31378;SDS011;61664;48.112;11.662;2022-11-20T09:37:47;2.53;;;1.05;;
31378;SDS011;61664;48.112;11.662;2022-11-20T09:40:25;1.17;;;1.08;;
31378;SDS011;61664;48.112;11.662;2022-11-20T09:42:59;1.00;;;0.93;;
31378;SDS011;61664;48.112;11.662;2022-11-20T09:48:36;1.20;;;1.17;;
31378;SDS011;61664;48.112;11.662;2022-11-20T09:56:50;4.10;;;1.40;;
31378;SDS011;61664;48.112;11.662;2022-11-20T09:59:38;1.08;;;0.82;;
31378;SDS011;61664;48.112;11.662;2022-11-20T10:02:16;1.15;;;0.90;;
31378;SDS011;61664;48.112;11.662;2022-11-20T10:04:55;1.60;;;0.80;;
31378;SDS011;61664;48.112;11.662;2022-11-20T10:07:30;0.70;;;0.70;;
31378;SDS011;61664;48.112;11.662;2022-11-20T10:10:33;2.35;;;0.90;;
31378;SDS011;61664;48.112;11.662;2022-11-20T10:16:00;1.92;;;1.00;;
31378;SDS011;61664;48.112;11.662;2022-11-20T10:30:06;0.95;;;0.95;;
31378;SDS011;61664;48.112;11.662;2022-11-20T10:32:39;1.23;;;1.13;;
31378;SDS011;61664;48.112;11.662;2022-11-20T10:35:18;1.35;;;0.70;;
31378;SDS011;61664;48.112;11.662;2022-11-20T10:37:59;1.48;;;1.10;;
31378;SDS011;61664;48.112;11.662;2022-11-20T10:43:18;1.20;;;1.10;;
31378;SDS011;61664;48.112;11.662;2022-11-20T10:48:36;1.10;;;1.00;;
31378;SDS011;61664;48.112;11.662;2022-11-20T10:56:53;1.30;;;1.20;;
31378;SDS011;61664;48.112;11.662;2022-11-20T11:02:32;1.60;;;1.50;;
31378;SDS011;61664;48.112;11.662;2022-11-20T11:07:51;1.83;;;1.00;;
31378;SDS011;61664;48.112;11.662;2022-11-20T11:10:24;1.05;;;0.77;;
31378;SDS011;61664;48.112;11.662;2022-11-20T11:13:01;1.40;;;1.30;;
31378;SDS011;61664;48.112;11.662;2022-11-20T11:15:38;2.17;;;1.73;;
31378;SDS011;61664;48.112;11.662;2022-11-20T11:18:10;1.45;;;1.35;;
31378;SDS011;61664;48.112;11.662;2022-11-20T11:20:37;2.17;;;2.00;;
31378;SDS011;61664;48.112;11.662;2022-11-20T11:23:04;1.38;;;1.27;;
31378;SDS011;61664;48.112;11.662;2022-11-20T11:25:58;1.67;;;1.38;;
31378;SDS011;61664;48.112;11.662;2022-11-20T11:28:27;0.80;;;0.70;;
31378;SDS011;61664;48.112;11.662;2022-11-20T11:30:55;1.20;;;1.00;;
31378;SDS011;61664;48.112;11.662;2022-11-20T11:33:23;1.30;;;1.20;;
31378;SDS011;61664;48.112;11.662;2022-11-20T11:35:55;1.42;;;1.10;;
31378;SDS011;61664;48.112;11.662;2022-11-20T11:38:38;1.65;;;1.25;;
31378;SDS011;61664;48.112;11.662;2022-11-20T11:41:10;1.55;;;1.45;;
31378;SDS011;61664;48.112;11.662;2022-11-20T11:43:52;1.05;;;0.90;;
31378;SDS011;61664;48.112;11.662;2022-11-20T11:46:54;0.80;;;0.80;;
31378;SDS011;61664;48.112;11.662;2022-11-20T11:49:22;0.95;;;0.88;;
31378;SDS011;61664;48.112;11.662;2022-11-20T11:52:10;0.90;;;0.90;;
31378;SDS011;61664;48.112;11.662;2022-11-20T11:54:56;0.98;;;0.88;;
31378;SDS011;61664;48.112;11.662;2022-11-20T12:00:26;0.90;;;0.90;;
31378;SDS011;61664;48.112;11.662;2022-11-20T12:05:57;0.90;;;0.90;;
31378;SDS011;61664;48.112;11.662;2022-11-20T12:08:31;0.75;;;0.75;;
31378;SDS011;61664;48.112;11.662;2022-11-20T12:11:12;0.90;;;0.90;;
31378;SDS011;61664;48.112;11.662;2022-11-20T12:17:02;1.02;;;0.93;;
31378;SDS011;61664;48.112;11.662;2022-11-20T12:19:30;1.15;;;1.05;;
31378;SDS011;61664;48.112;11.662;2022-11-20T12:38:30;1.50;;;1.40;;
31378;SDS011;61664;48.112;11.662;2022-11-20T12:41:27;1.17;;;1.05;;
31378;SDS011;61664;48.112;11.662;2022-11-20T12:47:49;1.55;;;1.45;;
31378;SDS011;61664;48.112;11.662;2022-11-20T13:08:02;0.93;;;0.93;;
31378;SDS011;61664;48.112;11.662;2022-11-20T13:10:47;1.73;;;1.50;;
31378;SDS011;61664;48.112;11.662;2022-11-20T13:16:10;1.80;;;1.17;;
31378;SDS011;61664;48.112;11.662;2022-11-20T13:18:53;1.08;;;1.00;;
31378;SDS011;61664;48.112;11.662;2022-11-20T13:21:21;1.20;;;1.10;;
31378;SDS011;61664;48.112;11.662;2022-11-20T13:24:20;1.38;;;1.05;;
31378;SDS011;61664;48.112;11.662;2022-11-20T13:27:01;1.35;;;1.35;;
31378;SDS011;61664;48.112;11.662;2022-11-20T13:29:35;1.50;;;1.23;;
31378;SDS011;61664;48.112;11.662;2022-11-20T13:32:11;2.78;;;1.85;;
31378;SDS011;61664;48.112;11.662;2022-11-20T13:34:53;2.90;;;1.42;;
31378;SDS011;61664;48.112;11.662;2022-11-20T13:37:34;1.35;;;1.17;;
31378;SDS011;61664;48.112;11.662;2022-11-20T13:40:13;1.23;;;1.13;;
31378;SDS011;61664;48.112;11.662;2022-11-20T13:45:58;2.83;;;1.30;;
31378;SDS011;61664;48.112;11.662;2022-11-20T13:48:32;2.10;;;1.90;;
31378;SDS011;61664;48.112;11.662;2022-11-20T13:56:54;2.25;;;2.10;;
31378;SDS011;61664;48.112;11.662;2022-11-20T14:02:25;1.70;;;1.60;;
31378;SDS011;61664;48.112;11.662;2022-11-20T14:04:56;1.75;;;1.65;;
31378;SDS011;61664;48.112;11.662;2022-11-20T14:07:35;2.15;;;1.90;;
31378;SDS011;61664;48.112;11.662;2022-11-20T14:12:57;3.17;;;1.73;;
31378;SDS011;61664;48.112;11.662;2022-11-20T14:15:36;2.05;;;1.95;;
31378;SDS011;61664;48.112;11.662;2022-11-20T14:18:11;1.95;;;1.85;;
31378;SDS011;61664;48.112;11.662;2022-11-20T14:20:47;2.60;;;2.15;;
31378;SDS011;61664;48.112;11.662;2022-11-20T14:23:23;3.38;;;2.00;;
31378;SDS011;61664;48.112;11.662;2022-11-20T14:25:55;1.48;;;1.38;;
31378;SDS011;61664;48.112;11.662;2022-11-20T14:28:27;1.70;;;1.60;;
31378;SDS011;61664;48.112;11.662;2022-11-20T14:30:56;2.13;;;1.50;;
31378;SDS011;61664;48.112;11.662;2022-11-20T14:33:23;2.25;;;2.05;;
31378;SDS011;61664;48.112;11.662;2022-11-20T14:35:56;5.97;;;2.60;;
31378;SDS011;61664;48.112;11.662;2022-11-20T14:38:25;3.15;;;2.38;;
31378;SDS011;61664;48.112;11.662;2022-11-20T14:41:08;1.50;;;1.38;;
31378;SDS011;61664;48.112;11.662;2022-11-20T14:43:45;5.60;;;3.15;;
31378;SDS011;61664;48.112;11.662;2022-11-20T14:46:34;1.60;;;1.50;;
31378;SDS011;61664;48.112;11.662;2022-11-20T14:49:01;4.10;;;1.30;;
31378;SDS011;61664;48.112;11.662;2022-11-20T14:51:34;1.85;;;1.60;;
31378;SDS011;61664;48.112;11.662;2022-11-20T14:54:19;2.33;;;2.10;;
31378;SDS011;61664;48.112;11.662;2022-11-20T14:56:55;6.82;;;3.95;;
31378;SDS011;61664;48.112;11.662;2022-11-20T14:59:30;4.60;;;1.52;;
31378;SDS011;61664;48.112;11.662;2022-11-20T15:02:01;0.93;;;0.93;;
31378;SDS011;61664;48.112;11.662;2022-11-20T15:04:46;1.60;;;1.38;;
31378;SDS011;61664;48.112;11.662;2022-11-20T15:07:28;1.83;;;1.42;;
31378;SDS011;61664;48.112;11.662;2022-11-20T15:09:59;1.20;;;1.10;;
31378;SDS011;61664;48.112;11.662;2022-11-20T15:12:29;0.98;;;0.80;;
31378;SDS011;61664;48.112;11.662;2022-11-20T15:14:58;0.60;;;0.60;;
31378;SDS011;61664;48.112;11.662;2022-11-20T15:17:26;1.77;;;1.48;;
31378;SDS011;61664;48.112;11.662;2022-11-20T15:19:53;1.67;;;1.58;;
31378;SDS011;61664;48.112;11.662;2022-11-20T15:22:21;2.95;;;1.10;;
31378;SDS011;61664;48.112;11.662;2022-11-20T15:24:48;0.98;;;0.98;;
31378;SDS011;61664;48.112;11.662;2022-11-20T15:27:15;1.55;;;1.45;;
31378;SDS011;61664;48.112;11.662;2022-11-20T15:29:42;1.20;;;1.10;;
31378;SDS011;61664;48.112;11.662;2022-11-20T15:32:09;1.23;;;1.13;;
31378;SDS011;61664;48.112;11.662;2022-11-20T15:34:38;1.50;;;1.40;;
31378;SDS011;61664;48.112;11.662;2022-11-20T15:37:05;1.73;;;1.63;;
31378;SDS011;61664;48.112;11.662;2022-11-20T15:39:32;1.55;;;1.45;;
31378;SDS011;61664;48.112;11.662;2022-11-20T15:41:59;2.25;;;1.63;;
31378;SDS011;61664;48.112;11.662;2022-11-20T15:44:26;3.05;;;1.80;;
31378;SDS011;61664;48.112;11.662;2022-11-20T15:46:53;1.75;;;1.00;;
31378;SDS011;61664;48.112;11.662;2022-11-20T15:49:20;1.58;;;1.48;;
31378;SDS011;61664;48.112;11.662;2022-11-20T15:51:49;1.33;;;1.23;;
31378;SDS011;61664;48.112;11.662;2022-11-20T15:54:18;1.50;;;1.40;;
31378;SDS011;61664;48.112;11.662;2022-11-20T15:56:49;1.30;;;1.00;;
31378;SDS011;61664;48.112;11.662;2022-11-20T16:01:46;1.27;;;1.15;;
31378;SDS011;61664;48.112;11.662;2022-11-20T16:04:14;1.42;;;1.33;;
31378;SDS011;61664;48.112;11.662;2022-11-20T16:06:42;1.73;;;1.42;;
31378;SDS011;61664;48.112;11.662;2022-11-20T16:09:09;1.95;;;1.45;;
31378;SDS011;61664;48.112;11.662;2022-11-20T16:11:37;2.13;;;1.70;;
31378;SDS011;61664;48.112;11.662;2022-11-20T16:14:04;2.08;;;1.55;;
31378;SDS011;61664;48.112;11.662;2022-11-20T16:16:51;2.25;;;1.95;;
31378;SDS011;61664;48.112;11.662;2022-11-20T16:19:18;4.38;;;4.00;;
31378;SDS011;61664;48.112;11.662;2022-11-20T16:21:45;5.50;;;4.97;;
31378;SDS011;61664;48.112;11.662;2022-11-20T16:24:13;3.83;;;3.53;;
31378;SDS011;61664;48.112;11.662;2022-11-20T16:26:42;4.35;;;3.08;;
31378;SDS011;61664;48.112;11.662;2022-11-20T16:29:09;3.15;;;2.75;;
31378;SDS011;61664;48.112;11.662;2022-11-20T16:31:36;4.00;;;3.03;;
31378;SDS011;61664;48.112;11.662;2022-11-20T16:34:04;6.28;;;4.07;;
31378;SDS011;61664;48.112;11.662;2022-11-20T16:36:49;5.68;;;3.72;;
31378;SDS011;61664;48.112;11.662;2022-11-20T16:39:15;4.40;;;3.22;;
31378;SDS011;61664;48.112;11.662;2022-11-20T16:41:48;6.00;;;4.00;;
31378;SDS011;61664;48.112;11.662;2022-11-20T16:44:15;9.05;;;5.43;;
31378;SDS011;61664;48.112;11.662;2022-11-20T16:46:42;7.38;;;4.40;;
31378;SDS011;61664;48.112;11.662;2022-11-20T16:49:12;6.90;;;4.88;;
31378;SDS011;61664;48.112;11.662;2022-11-20T16:51:40;7.13;;;4.88;;